sensor_id;sensor_type;location;lat;lon;timestamp;pressure;altitude;pressure_sealevel;temperature;humidity
43420;BME280;29017;51.514;-0.178;2023-07-22T00:00:51;100975.09;;;18.61;68.08
43420;BME280;29017;51.514;-0.178;2023-07-22T00:03:18;100969.34;;;18.57;68.80
43420;BME280;29017;51.514;-0.178;2023-07-22T00:05:45;100976.94;;;18.54;68.67
43420;BME280;29017;51.514;-0.178;2023-07-22T00:08:12;100964.56;;;18.46;68.63
43420;BME280;29017;51.514;-0.178;2023-07-22T00:10:42;100963.94;;;18.44;68.78
43420;BME280;29017;51.514;-0.178;2023-07-22T00:13:10;100964.34;;;18.41;68.81
43420;BME280;29017;51.514;-0.178;2023-07-22T00:15:37;100958.19;;;18.41;69.58
43420;BME280;29017;51.514;-0.178;2023-07-22T00:18:04;100956.34;;;18.41;69.35
43420;BME280;29017;51.514;-0.178;2023-07-22T00:20:31;100964.16;;;18.43;69.18
43420;BME280;29017;51.514;-0.178;2023-07-22T00:22:58;100956.56;;;18.39;68.86
43420;BME280;29017;51.514;-0.178;2023-07-22T00:25:25;100950.81;;;18.36;68.55
43420;BME280;29017;51.514;-0.178;2023-07-22T00:27:52;100950.00;;;18.35;68.71
43420;BME280;29017;51.514;-0.178;2023-07-22T00:30:19;100955.50;;;18.34;69.51
43420;BME280;29017;51.514;-0.178;2023-07-22T00:32:46;100950.19;;;18.34;69.59
43420;BME280;29017;51.514;-0.178;2023-07-22T00:35:13;100947.94;;;18.31;69.30
43420;BME280;29017;51.514;-0.178;2023-07-22T00:37:40;100942.78;;;18.29;69.25
43420;BME280;29017;51.514;-0.178;2023-07-22T00:40:08;100943.63;;;18.23;69.41
43420;BME280;29017;51.514;-0.178;2023-07-22T00:42:39;100940.94;;;18.23;70.06
43420;BME280;29017;51.514;-0.178;2023-07-22T00:45:06;100935.81;;;18.22;70.05
43420;BME280;29017;51.514;-0.178;2023-07-22T00:47:34;100938.84;;;18.19;70.30
43420;BME280;29017;51.514;-0.178;2023-07-22T00:50:03;100934.75;;;18.16;70.33
43420;BME280;29017;51.514;-0.178;2023-07-22T00:52:30;100928.81;;;18.14;70.67
43420;BME280;29017;51.514;-0.178;2023-07-22T00:54:58;100925.72;;;18.11;71.26
43420;BME280;29017;51.514;-0.178;2023-07-22T00:57:25;100925.53;;;18.12;71.19
43420;BME280;29017;51.514;-0.178;2023-07-22T00:59:52;100924.28;;;18.08;70.95
43420;BME280;29017;51.514;-0.178;2023-07-22T01:02:21;100923.84;;;18.05;71.21
43420;BME280;29017;51.514;-0.178;2023-07-22T01:04:49;100912.97;;;18.00;71.44
43420;BME280;29017;51.514;-0.178;2023-07-22T01:07:19;100919.09;;;17.93;71.63
43420;BME280;29017;51.514;-0.178;2023-07-22T01:09:46;100905.59;;;17.95;72.59
43420;BME280;29017;51.514;-0.178;2023-07-22T01:12:13;100913.38;;;17.97;72.36
43420;BME280;29017;51.514;-0.178;2023-07-22T01:14:41;100916.66;;;17.92;72.03
43420;BME280;29017;51.514;-0.178;2023-07-22T01:17:10;100911.91;;;17.87;71.73
43420;BME280;29017;51.514;-0.178;2023-07-22T01:19:38;100916.81;;;17.84;71.45
43420;BME280;29017;51.514;-0.178;2023-07-22T01:22:06;100913.31;;;17.83;71.84
43420;BME280;29017;51.514;-0.178;2023-07-22T01:24:38;100910.66;;;17.77;72.07
43420;BME280;29017;51.514;-0.178;2023-07-22T01:27:06;100912.66;;;17.75;72.22
43420;BME280;29017;51.514;-0.178;2023-07-22T01:29:35;100906.72;;;17.73;72.36
43420;BME280;29017;51.514;-0.178;2023-07-22T01:32:02;100906.94;;;17.71;72.53
43420;BME280;29017;51.514;-0.178;2023-07-22T01:34:30;100907.75;;;17.72;72.93
43420;BME280;29017;51.514;-0.178;2023-07-22T01:36:58;100907.13;;;17.70;73.67
43420;BME280;29017;51.514;-0.178;2023-07-22T01:39:26;100904.41;;;17.63;73.57
43420;BME280;29017;51.514;-0.178;2023-07-22T01:41:54;100904.56;;;17.55;73.16
43420;BME280;29017;51.514;-0.178;2023-07-22T01:44:21;100889.00;;;17.52;73.48
43420;BME280;29017;51.514;-0.178;2023-07-22T01:46:48;100896.16;;;17.51;73.48
43420;BME280;29017;51.514;-0.178;2023-07-22T01:49:15;100895.50;;;17.49;73.08
43420;BME280;29017;51.514;-0.178;2023-07-22T01:51:43;100896.28;;;17.43;73.91
43420;BME280;29017;51.514;-0.178;2023-07-22T01:54:10;100888.31;;;17.43;74.27
43420;BME280;29017;51.514;-0.178;2023-07-22T01:56:38;100890.72;;;17.38;74.15
43420;BME280;29017;51.514;-0.178;2023-07-22T01:59:06;100890.16;;;17.43;74.11
43420;BME280;29017;51.514;-0.178;2023-07-22T02:01:33;100890.97;;;17.43;74.19
43420;BME280;29017;51.514;-0.178;2023-07-22T02:04:00;100892.03;;;17.49;74.21
43420;BME280;29017;51.514;-0.178;2023-07-22T02:06:27;100884.22;;;17.47;73.88
43420;BME280;29017;51.514;-0.178;2023-07-22T02:08:56;100887.72;;;17.48;74.06
43420;BME280;29017;51.514;-0.178;2023-07-22T02:11:23;100882.81;;;17.45;73.79
43420;BME280;29017;51.514;-0.178;2023-07-22T02:13:50;100880.53;;;17.42;73.77
43420;BME280;29017;51.514;-0.178;2023-07-22T02:16:17;100878.69;;;17.42;74.13
43420;BME280;29017;51.514;-0.178;2023-07-22T02:18:45;100882.16;;;17.43;74.18
43420;BME280;29017;51.514;-0.178;2023-07-22T02:21:12;100878.69;;;17.42;74.69
43420;BME280;29017;51.514;-0.178;2023-07-22T02:23:40;100875.22;;;17.42;74.36
43420;BME280;29017;51.514;-0.178;2023-07-22T02:26:07;100867.00;;;17.37;73.57
43420;BME280;29017;51.514;-0.178;2023-07-22T02:28:37;100863.47;;;17.30;74.02
43420;BME280;29017;51.514;-0.178;2023-07-22T02:31:04;100861.44;;;17.32;74.31
43420;BME280;29017;51.514;-0.178;2023-07-22T02:33:34;100863.47;;;17.30;74.29
43420;BME280;29017;51.514;-0.178;2023-07-22T02:36:01;100866.13;;;17.30;74.47
43420;BME280;29017;51.514;-0.178;2023-07-22T02:38:28;100863.66;;;17.28;74.41
43420;BME280;29017;51.514;-0.178;2023-07-22T02:41:02;100865.50;;;17.28;74.38
43420;BME280;29017;51.514;-0.178;2023-07-22T02:43:29;100853.19;;;17.20;74.52
43420;BME280;29017;51.514;-0.178;2023-07-22T02:45:57;100854.00;;;17.21;75.00
43420;BME280;29017;51.514;-0.178;2023-07-22T02:48:24;100848.06;;;17.19;75.08
43420;BME280;29017;51.514;-0.178;2023-07-22T02:50:51;100854.84;;;17.21;75.05
43420;BME280;29017;51.514;-0.178;2023-07-22T02:53:18;100860.34;;;17.20;75.09
43420;BME280;29017;51.514;-0.178;2023-07-22T02:55:46;100857.69;;;17.20;75.09
43420;BME280;29017;51.514;-0.178;2023-07-22T02:58:13;100860.75;;;17.17;74.94
43420;BME280;29017;51.514;-0.178;2023-07-22T03:00:40;100861.53;;;17.17;75.51
43420;BME280;29017;51.514;-0.178;2023-07-22T03:03:07;100856.22;;;17.17;75.24
43420;BME280;29017;51.514;-0.178;2023-07-22T03:05:35;100859.94;;;17.23;75.79
43420;BME280;29017;51.514;-0.178;2023-07-22T03:08:02;100862.00;;;17.21;75.73
43420;BME280;29017;51.514;-0.178;2023-07-22T03:10:29;100857.28;;;17.23;75.71
43420;BME280;29017;51.514;-0.178;2023-07-22T03:12:58;100860.34;;;17.20;75.49
43420;BME280;29017;51.514;-0.178;2023-07-22T03:15:26;100856.22;;;17.17;75.77
43420;BME280;29017;51.514;-0.178;2023-07-22T03:17:54;100856.03;;;17.19;75.90
43420;BME280;29017;51.514;-0.178;2023-07-22T03:20:22;100858.69;;;17.19;75.30
43420;BME280;29017;51.514;-0.178;2023-07-22T03:22:51;100852.78;;;17.17;75.64
43420;BME280;29017;51.514;-0.178;2023-07-22T03:25:19;100855.97;;;17.12;75.42
43420;BME280;29017;51.514;-0.178;2023-07-22T03:27:47;100851.72;;;17.11;76.14
43420;BME280;29017;51.514;-0.178;2023-07-22T03:30:15;100851.50;;;17.13;75.95
43420;BME280;29017;51.514;-0.178;2023-07-22T03:32:45;100848.00;;;17.12;76.14
43420;BME280;29017;51.514;-0.178;2023-07-22T03:35:14;100850.09;;;17.17;77.26
43420;BME280;29017;51.514;-0.178;2023-07-22T03:37:42;100849.06;;;17.18;77.19
43420;BME280;29017;51.514;-0.178;2023-07-22T03:40:10;100854.97;;;17.13;76.44
43420;BME280;29017;51.514;-0.178;2023-07-22T03:42:38;100851.50;;;17.13;76.23
43420;BME280;29017;51.514;-0.178;2023-07-22T03:45:07;100848.22;;;17.10;76.20
43420;BME280;29017;51.514;-0.178;2023-07-22T03:47:34;100852.31;;;17.13;76.74
43420;BME280;29017;51.514;-0.178;2023-07-22T03:50:02;100841.50;;;17.15;77.33
43420;BME280;29017;51.514;-0.178;2023-07-22T03:52:29;100847.22;;;17.18;77.43
43420;BME280;29017;51.514;-0.178;2023-07-22T03:54:56;100842.94;;;17.17;76.48
43420;BME280;29017;51.514;-0.178;2023-07-22T03:57:29;100840.25;;;17.17;76.53
43420;BME280;29017;51.514;-0.178;2023-07-22T03:59:56;100835.94;;;17.09;76.00
43420;BME280;29017;51.514;-0.178;2023-07-22T04:02:24;100837.78;;;17.09;76.82
43420;BME280;29017;51.514;-0.178;2023-07-22T04:04:53;100841.06;;;17.11;76.95
43420;BME280;29017;51.514;-0.178;2023-07-22T04:07:21;100844.56;;;17.12;76.46
43420;BME280;29017;51.514;-0.178;2023-07-22T04:09:49;100837.59;;;17.10;76.04
43420;BME280;29017;51.514;-0.178;2023-07-22T04:12:16;100841.69;;;17.13;76.34
43420;BME280;29017;51.514;-0.178;2023-07-22T04:14:44;100833.91;;;17.12;76.60
43420;BME280;29017;51.514;-0.178;2023-07-22T04:17:11;100830.63;;;17.09;76.48
43420;BME280;29017;51.514;-0.178;2023-07-22T04:19:38;100832.47;;;17.09;76.24
43420;BME280;29017;51.514;-0.178;2023-07-22T04:22:05;100836.94;;;17.08;76.38
43420;BME280;29017;51.514;-0.178;2023-07-22T04:24:33;100829.97;;;17.07;75.93
43420;BME280;29017;51.514;-0.178;2023-07-22T04:27:01;100829.16;;;17.07;76.70
43420;BME280;29017;51.514;-0.178;2023-07-22T04:29:28;100830.63;;;17.09;76.31
43420;BME280;29017;51.514;-0.178;2023-07-22T04:31:59;100827.78;;;17.11;76.20
43420;BME280;29017;51.514;-0.178;2023-07-22T04:34:30;100819.41;;;17.14;76.39
43420;BME280;29017;51.514;-0.178;2023-07-22T04:36:57;100825.13;;;17.18;77.04
43420;BME280;29017;51.514;-0.178;2023-07-22T04:39:24;100814.50;;;17.18;76.49
43420;BME280;29017;51.514;-0.178;2023-07-22T04:41:51;100816.97;;;17.19;76.55
43420;BME280;29017;51.514;-0.178;2023-07-22T04:44:19;100824.94;;;17.19;76.38
43420;BME280;29017;51.514;-0.178;2023-07-22T04:46:46;100820.63;;;17.18;76.13
43420;BME280;29017;51.514;-0.178;2023-07-22T04:49:13;100820.84;;;17.17;76.03
43420;BME280;29017;51.514;-0.178;2023-07-22T04:51:45;100810.59;;;17.14;76.17
43420;BME280;29017;51.514;-0.178;2023-07-22T04:54:13;100817.97;;;17.12;76.27
43420;BME280;29017;51.514;-0.178;2023-07-22T04:56:41;100813.66;;;17.10;76.08
43420;BME280;29017;51.514;-0.178;2023-07-22T04:59:09;100810.78;;;17.12;76.13
43420;BME280;29017;51.514;-0.178;2023-07-22T05:01:36;100803.44;;;17.14;76.60
43420;BME280;29017;51.514;-0.178;2023-07-22T05:04:04;100808.56;;;17.16;76.06
43420;BME280;29017;51.514;-0.178;2023-07-22T05:06:32;100809.59;;;17.15;75.81
43420;BME280;29017;51.514;-0.178;2023-07-22T05:08:59;100810.22;;;17.17;76.09
43420;BME280;29017;51.514;-0.178;2023-07-22T05:11:26;100801.41;;;17.16;76.06
43420;BME280;29017;51.514;-0.178;2023-07-22T05:13:56;100798.94;;;17.15;76.40
43420;BME280;29017;51.514;-0.178;2023-07-22T05:16:23;100807.56;;;17.17;76.28
43420;BME280;29017;51.514;-0.178;2023-07-22T05:18:50;100805.50;;;17.19;76.33
43420;BME280;29017;51.514;-0.178;2023-07-22T05:21:17;100792.41;;;17.17;76.07
43420;BME280;29017;51.514;-0.178;2023-07-22T05:23:44;100796.47;;;17.13;75.92
43420;BME280;29017;51.514;-0.178;2023-07-22T05:26:11;100792.81;;;17.14;76.22
43420;BME280;29017;51.514;-0.178;2023-07-22T05:28:38;100793.22;;;17.18;77.61
43420;BME280;29017;51.514;-0.178;2023-07-22T05:31:05;100793.22;;;17.18;76.90
43420;BME280;29017;51.514;-0.178;2023-07-22T05:33:33;100779.50;;;17.14;76.30
43420;BME280;29017;51.514;-0.178;2023-07-22T05:36:00;100792.16;;;17.12;76.09
43420;BME280;29017;51.514;-0.178;2023-07-22T05:38:27;100791.16;;;17.13;76.07
43420;BME280;29017;51.514;-0.178;2023-07-22T05:40:54;100786.84;;;17.12;76.16
43420;BME280;29017;51.514;-0.178;2023-07-22T05:43:21;100792.38;;;17.10;76.07
43420;BME280;29017;51.514;-0.178;2023-07-22T05:45:48;100796.88;;;17.10;76.29
43420;BME280;29017;51.514;-0.178;2023-07-22T05:48:16;100786.06;;;17.12;76.71
43420;BME280;29017;51.514;-0.178;2023-07-22T05:50:43;100788.50;;;17.13;76.54
43420;BME280;29017;51.514;-0.178;2023-07-22T05:53:10;100788.91;;;17.10;76.62
43420;BME280;29017;51.514;-0.178;2023-07-22T05:55:37;100799.72;;;17.08;76.85
43420;BME280;29017;51.514;-0.178;2023-07-22T05:58:04;100794.41;;;17.08;76.62
43420;BME280;29017;51.514;-0.178;2023-07-22T06:00:35;100793.22;;;17.11;76.80
43420;BME280;29017;51.514;-0.178;2023-07-22T06:03:02;100792.56;;;17.09;76.49
43420;BME280;29017;51.514;-0.178;2023-07-22T06:05:29;100794.03;;;17.12;76.76
43420;BME280;29017;51.514;-0.178;2023-07-22T06:07:56;100793.41;;;17.09;76.62
43420;BME280;29017;51.514;-0.178;2023-07-22T06:10:24;100794.22;;;17.10;77.14
43420;BME280;29017;51.514;-0.178;2023-07-22T06:12:51;100792.16;;;17.12;76.96
43420;BME280;29017;51.514;-0.178;2023-07-22T06:15:19;100793.63;;;17.15;76.96
43420;BME280;29017;51.514;-0.178;2023-07-22T06:17:46;100793.63;;;17.15;76.47
43420;BME280;29017;51.514;-0.178;2023-07-22T06:20:13;100782.16;;;17.14;76.83
43420;BME280;29017;51.514;-0.178;2023-07-22T06:22:40;100779.31;;;17.16;76.95
43420;BME280;29017;51.514;-0.178;2023-07-22T06:25:08;100786.88;;;17.19;77.02
43420;BME280;29017;51.514;-0.178;2023-07-22T06:27:35;100775.25;;;17.20;76.76
43420;BME280;29017;51.514;-0.178;2023-07-22T06:30:03;100782.22;;;17.21;76.50
43420;BME280;29017;51.514;-0.178;2023-07-22T06:32:30;100774.66;;;17.24;76.85
43420;BME280;29017;51.514;-0.178;2023-07-22T06:34:57;100769.34;;;17.24;76.36
43420;BME280;29017;51.514;-0.178;2023-07-22T06:37:25;100775.88;;;17.28;76.68
43420;BME280;29017;51.514;-0.178;2023-07-22T06:39:52;100767.31;;;17.33;77.28
43420;BME280;29017;51.514;-0.178;2023-07-22T06:42:20;100772.25;;;17.36;77.15
43420;BME280;29017;51.514;-0.178;2023-07-22T06:44:47;100770.41;;;17.43;77.10
43420;BME280;29017;51.514;-0.178;2023-07-22T06:47:14;100765.53;;;17.46;76.91
43420;BME280;29017;51.514;-0.178;2023-07-22T06:49:42;100770.88;;;17.53;76.71
43420;BME280;29017;51.514;-0.178;2023-07-22T06:52:13;100767.38;;;17.52;76.55
43420;BME280;29017;51.514;-0.178;2023-07-22T06:54:40;100771.69;;;17.53;76.54
43420;BME280;29017;51.514;-0.178;2023-07-22T06:57:08;100765.34;;;17.54;76.63
43420;BME280;29017;51.514;-0.178;2023-07-22T06:59:35;100759.47;;;17.59;76.14
43420;BME280;29017;51.514;-0.178;2023-07-22T07:02:03;100771.75;;;17.60;76.17
43420;BME280;29017;51.514;-0.178;2023-07-22T07:04:31;100776.25;;;17.60;75.78
43420;BME280;29017;51.514;-0.178;2023-07-22T07:06:59;100780.78;;;17.66;77.02
43420;BME280;29017;51.514;-0.178;2023-07-22T07:09:26;100776.88;;;17.68;76.28
43420;BME280;29017;51.514;-0.178;2023-07-22T07:11:53;100770.53;;;17.69;75.75
43420;BME280;29017;51.514;-0.178;2023-07-22T07:14:24;100761.56;;;17.70;75.77
43420;BME280;29017;51.514;-0.178;2023-07-22T07:16:54;100754.78;;;17.68;75.29
43420;BME280;29017;51.514;-0.178;2023-07-22T07:19:21;100767.06;;;17.69;75.90
43420;BME280;29017;51.514;-0.178;2023-07-22T07:21:48;100762.59;;;17.76;76.56
43420;BME280;29017;51.514;-0.178;2023-07-22T07:24:16;100763.81;;;17.80;76.03
43420;BME280;29017;51.514;-0.178;2023-07-22T07:26:43;100763.84;;;17.86;76.66
43420;BME280;29017;51.514;-0.178;2023-07-22T07:29:11;100755.06;;;17.92;76.72
43420;BME280;29017;51.514;-0.178;2023-07-22T07:31:46;100757.31;;;17.95;76.63
43420;BME280;29017;51.514;-0.178;2023-07-22T07:34:13;100760.97;;;17.94;76.81
43420;BME280;29017;51.514;-0.178;2023-07-22T07:36:40;100755.47;;;17.96;76.96
43420;BME280;29017;51.514;-0.178;2023-07-22T07:39:07;100753.81;;;17.95;77.20
43420;BME280;29017;51.514;-0.178;2023-07-22T07:41:34;100748.91;;;17.99;77.45
43420;BME280;29017;51.514;-0.178;2023-07-22T07:44:01;100751.78;;;17.97;77.31
43420;BME280;29017;51.514;-0.178;2023-07-22T07:46:28;100743.56;;;17.99;77.74
43420;BME280;29017;51.514;-0.178;2023-07-22T07:49:00;100748.50;;;18.02;78.38
43420;BME280;29017;51.514;-0.178;2023-07-22T07:51:29;100755.66;;;18.01;78.18
43420;BME280;29017;51.514;-0.178;2023-07-22T07:54:01;100753.00;;;18.01;77.94
43420;BME280;29017;51.514;-0.178;2023-07-22T07:56:31;100758.53;;;18.06;77.66
43420;BME280;29017;51.514;-0.178;2023-07-22T07:58:58;100750.75;;;18.05;77.31
43420;BME280;29017;51.514;-0.178;2023-07-22T08:01:25;100755.88;;;18.06;77.17
43420;BME280;29017;51.514;-0.178;2023-07-22T08:04:00;100755.06;;;18.12;77.28
43420;BME280;29017;51.514;-0.178;2023-07-22T08:06:34;100756.09;;;18.18;76.58
43420;BME280;29017;51.514;-0.178;2023-07-22T08:09:01;100747.28;;;18.24;76.48
43420;BME280;29017;51.514;-0.178;2023-07-22T08:11:29;100745.63;;;18.29;75.92
43420;BME280;29017;51.514;-0.178;2023-07-22T08:13:56;100753.63;;;18.36;75.89
43420;BME280;29017;51.514;-0.178;2023-07-22T08:16:23;100752.63;;;18.44;76.12
43420;BME280;29017;51.514;-0.178;2023-07-22T08:18:51;100745.22;;;18.52;75.99
43420;BME280;29017;51.514;-0.178;2023-07-22T08:21:19;100749.53;;;18.53;74.79
43420;BME280;29017;51.514;-0.178;2023-07-22T08:23:46;100741.97;;;18.57;74.97
43420;BME280;29017;51.514;-0.178;2023-07-22T08:26:14;100745.03;;;18.60;74.11
43420;BME280;29017;51.514;-0.178;2023-07-22T08:28:44;100735.59;;;18.64;74.12
43420;BME280;29017;51.514;-0.178;2023-07-22T08:31:11;100743.38;;;18.66;74.20
43420;BME280;29017;51.514;-0.178;2023-07-22T08:33:38;100732.13;;;18.64;73.84
43420;BME280;29017;51.514;-0.178;2023-07-22T08:36:08;100725.56;;;18.66;74.02
43420;BME280;29017;51.514;-0.178;2023-07-22T08:38:36;100718.38;;;18.67;73.48
43420;BME280;29017;51.514;-0.178;2023-07-22T08:41:03;100723.91;;;18.72;74.07
43420;BME280;29017;51.514;-0.178;2023-07-22T08:43:30;100712.41;;;18.78;73.98
43420;BME280;29017;51.514;-0.178;2023-07-22T08:46:01;100709.69;;;18.85;73.95
43420;BME280;29017;51.514;-0.178;2023-07-22T08:48:34;100702.13;;;18.88;72.52
43420;BME280;29017;51.514;-0.178;2023-07-22T08:51:14;100708.25;;;18.95;73.35
43420;BME280;29017;51.514;-0.178;2023-07-22T08:53:54;100710.69;;;19.03;73.20
43420;BME280;29017;51.514;-0.178;2023-07-22T08:56:38;100704.50;;;19.09;71.70
43420;BME280;29017;51.514;-0.178;2023-07-22T08:59:05;100701.22;;;19.14;70.65
43420;BME280;29017;51.514;-0.178;2023-07-22T09:01:34;100698.31;;;19.15;70.83
43420;BME280;29017;51.514;-0.178;2023-07-22T09:04:01;100699.53;;;19.19;70.56
43420;BME280;29017;51.514;-0.178;2023-07-22T09:06:29;100693.59;;;19.17;69.34
43420;BME280;29017;51.514;-0.178;2023-07-22T09:08:58;100699.13;;;19.16;69.85
43420;BME280;29017;51.514;-0.178;2023-07-22T09:11:25;100693.78;;;19.22;71.16
43420;BME280;29017;51.514;-0.178;2023-07-22T09:13:54;100703.19;;;19.25;70.74
43420;BME280;29017;51.514;-0.178;2023-07-22T09:16:23;100698.84;;;19.31;70.86
43420;BME280;29017;51.514;-0.178;2023-07-22T09:18:59;100699.25;;;19.34;70.05
43420;BME280;29017;51.514;-0.178;2023-07-22T09:21:26;100696.59;;;19.34;69.07
43420;BME280;29017;51.514;-0.178;2023-07-22T09:24:19;100689.81;;;19.32;70.10
43420;BME280;29017;51.514;-0.178;2023-07-22T09:26:46;100697.63;;;19.33;69.92
43420;BME280;29017;51.514;-0.178;2023-07-22T09:29:13;100698.00;;;19.37;69.92
43420;BME280;29017;51.514;-0.178;2023-07-22T09:31:53;100688.53;;;19.41;68.92
43420;BME280;29017;51.514;-0.178;2023-07-22T09:34:20;100687.50;;;19.42;68.98
43420;BME280;29017;51.514;-0.178;2023-07-22T09:37:08;100692.84;;;19.42;68.88
43420;BME280;29017;51.514;-0.178;2023-07-22T09:39:36;100692.63;;;19.43;69.64
43420;BME280;29017;51.514;-0.178;2023-07-22T09:42:03;100692.03;;;19.48;70.51
43420;BME280;29017;51.514;-0.178;2023-07-22T09:44:31;100693.47;;;19.50;69.98
43420;BME280;29017;51.514;-0.178;2023-07-22T09:47:05;100692.19;;;19.53;70.27
43420;BME280;29017;51.514;-0.178;2023-07-22T09:49:33;100700.00;;;19.54;69.59
43420;BME280;29017;51.514;-0.178;2023-07-22T09:52:00;100695.31;;;19.50;69.06
43420;BME280;29017;51.514;-0.178;2023-07-22T09:54:46;100692.03;;;19.48;69.04
43420;BME280;29017;51.514;-0.178;2023-07-22T09:57:15;100698.38;;;19.47;69.68
43420;BME280;29017;51.514;-0.178;2023-07-22T09:59:42;100702.09;;;19.46;69.09
43420;BME280;29017;51.514;-0.178;2023-07-22T10:02:11;100701.06;;;19.47;69.89
43420;BME280;29017;51.514;-0.178;2023-07-22T10:04:39;100697.97;;;19.43;69.77
43420;BME280;29017;51.514;-0.178;2023-07-22T10:07:07;100693.06;;;19.40;70.33
43420;BME280;29017;51.514;-0.178;2023-07-22T10:09:36;100702.94;;;19.40;70.30
43420;BME280;29017;51.514;-0.178;2023-07-22T10:12:04;100704.16;;;19.37;70.24
43420;BME280;29017;51.514;-0.178;2023-07-22T10:14:32;100692.47;;;19.38;70.05
43420;BME280;29017;51.514;-0.178;2023-07-22T10:17:03;100696.34;;;19.42;70.39
43420;BME280;29017;51.514;-0.178;2023-07-22T10:19:31;100693.06;;;19.47;70.28
43420;BME280;29017;51.514;-0.178;2023-07-22T10:21:59;100689.97;;;19.50;70.80
43420;BME280;29017;51.514;-0.178;2023-07-22T10:24:27;100692.19;;;19.53;71.47
43420;BME280;29017;51.514;-0.178;2023-07-22T10:26:55;100687.84;;;19.58;71.29
43420;BME280;29017;51.514;-0.178;2023-07-22T10:29:22;100688.06;;;19.57;70.93
43420;BME280;29017;51.514;-0.178;2023-07-22T10:31:53;100693.19;;;19.58;70.80
43420;BME280;29017;51.514;-0.178;2023-07-22T10:34:21;100683.53;;;19.57;71.05
43420;BME280;29017;51.514;-0.178;2023-07-22T10:36:50;100683.16;;;19.54;71.25
43420;BME280;29017;51.514;-0.178;2023-07-22T10:39:28;100685.00;;;19.53;70.88
43420;BME280;29017;51.514;-0.178;2023-07-22T10:42:04;100679.47;;;19.55;70.25
43420;BME280;29017;51.514;-0.178;2023-07-22T10:44:38;100675.75;;;19.56;69.94
43420;BME280;29017;51.514;-0.178;2023-07-22T10:47:08;100679.00;;;19.64;70.87
43420;BME280;29017;51.514;-0.178;2023-07-22T10:49:47;100672.56;;;19.72;70.12
43420;BME280;29017;51.514;-0.178;2023-07-22T10:52:14;100665.38;;;19.73;68.68
43420;BME280;29017;51.514;-0.178;2023-07-22T10:54:41;100672.16;;;19.75;68.98
43420;BME280;29017;51.514;-0.178;2023-07-22T10:59:49;100662.22;;;19.82;67.71
43420;BME280;29017;51.514;-0.178;2023-07-22T11:02:26;100670.03;;;19.84;67.13
43420;BME280;29017;51.514;-0.178;2023-07-22T11:05:02;100660.97;;;19.85;66.05
43420;BME280;29017;51.514;-0.178;2023-07-22T11:07:42;100661.13;;;19.90;66.78
43420;BME280;29017;51.514;-0.178;2023-07-22T11:10:18;100648.16;;;19.93;65.91
43420;BME280;29017;51.514;-0.178;2023-07-22T11:12:46;100659.06;;;19.92;64.60
43420;BME280;29017;51.514;-0.178;2023-07-22T11:15:16;100649.59;;;19.96;65.36
43420;BME280;29017;51.514;-0.178;2023-07-22T11:17:43;100646.09;;;19.95;63.45
43420;BME280;29017;51.514;-0.178;2023-07-22T11:20:11;100635.63;;;19.94;63.84
43420;BME280;29017;51.514;-0.178;2023-07-22T11:22:40;100649.34;;;19.97;64.77
43420;BME280;29017;51.514;-0.178;2023-07-22T11:25:17;100641.78;;;19.94;63.94
43420;BME280;29017;51.514;-0.178;2023-07-22T11:27:45;100634.19;;;19.91;64.06
43420;BME280;29017;51.514;-0.178;2023-07-22T11:30:12;100645.31;;;19.88;64.06
43420;BME280;29017;51.514;-0.178;2023-07-22T11:32:42;100639.78;;;19.90;64.63
43420;BME280;29017;51.514;-0.178;2023-07-22T11:35:10;100630.78;;;19.84;64.33
43420;BME280;29017;51.514;-0.178;2023-07-22T11:37:37;100633.06;;;19.81;64.31
43420;BME280;29017;51.514;-0.178;2023-07-22T11:40:05;100633.88;;;19.81;64.88
43420;BME280;29017;51.514;-0.178;2023-07-22T11:42:34;100635.97;;;19.79;66.02
43420;BME280;29017;51.514;-0.178;2023-07-22T11:45:01;100648.75;;;19.71;67.28
43420;BME280;29017;51.514;-0.178;2023-07-22T11:47:29;100637.91;;;19.66;68.41
43420;BME280;29017;51.514;-0.178;2023-07-22T11:50:00;100649.00;;;19.62;69.64
43420;BME280;29017;51.514;-0.178;2023-07-22T11:52:27;100655.22;;;19.56;72.05
43420;BME280;29017;51.514;-0.178;2023-07-22T11:54:59;100649.69;;;19.51;73.19
43420;BME280;29017;51.514;-0.178;2023-07-22T11:57:28;100651.53;;;19.51;74.70
43420;BME280;29017;51.514;-0.178;2023-07-22T11:59:56;100669.03;;;19.40;75.55
43420;BME280;29017;51.514;-0.178;2023-07-22T12:02:26;100660.09;;;19.28;76.81
43420;BME280;29017;51.514;-0.178;2023-07-22T12:04:59;100653.38;;;19.19;78.59
43420;BME280;29017;51.514;-0.178;2023-07-22T12:07:27;100650.56;;;19.01;79.18
43420;BME280;29017;51.514;-0.178;2023-07-22T12:09:55;100656.34;;;18.91;80.42
43420;BME280;29017;51.514;-0.178;2023-07-22T12:12:37;100650.00;;;18.86;82.12
43420;BME280;29017;51.514;-0.178;2023-07-22T12:15:16;100659.47;;;18.82;84.02
43420;BME280;29017;51.514;-0.178;2023-07-22T12:20:31;100652.56;;;18.67;84.83
43420;BME280;29017;51.514;-0.178;2023-07-22T12:23:00;100646.41;;;18.60;86.29
43420;BME280;29017;51.514;-0.178;2023-07-22T12:25:27;100639.66;;;18.51;86.79
43420;BME280;29017;51.514;-0.178;2023-07-22T12:27:54;100633.69;;;18.49;87.53
43420;BME280;29017;51.514;-0.178;2023-07-22T12:30:21;100640.91;;;18.49;88.14
43420;BME280;29017;51.514;-0.178;2023-07-22T12:32:50;100627.78;;;18.41;88.79
43420;BME280;29017;51.514;-0.178;2023-07-22T12:35:18;100622.25;;;18.35;89.09
43420;BME280;29017;51.514;-0.178;2023-07-22T12:37:46;100630.25;;;18.35;89.47
43420;BME280;29017;51.514;-0.178;2023-07-22T12:40:13;100616.94;;;18.29;89.92
43420;BME280;29017;51.514;-0.178;2023-07-22T12:42:40;100627.19;;;18.25;89.88
43420;BME280;29017;51.514;-0.178;2023-07-22T12:45:08;100620.47;;;18.16;90.80
43420;BME280;29017;51.514;-0.178;2023-07-22T12:47:35;100619.63;;;18.16;92.52
43420;BME280;29017;51.514;-0.178;2023-07-22T12:50:07;100619.25;;;18.12;92.27
43420;BME280;29017;51.514;-0.178;2023-07-22T12:52:35;100612.28;;;18.11;92.79